Machida, Japan
Current Conditions -  °F | °C
As of 8:58 AM on Sunday 21 Dec 2014 (Local Time) from RJTY Reporting Station
Overcast Overcast  
Wind Chill: 41°   Ceiling: 3400
Heat Index: 41°   Visibility: 10mi
Dew Point: 41°   Wind: 3mph
Humidity: 100%   Direction: 190°S
Pressure: 29.86"   Gusts: NA
Location:  35.56°N, 139.43°E
Report Text: RJTY 202358Z AUTO 19003KT 10SM OVC034 05/05 A2986 RMK AO2 SLP121 60001 T00500050 10050 21002 52009
Loading
Personal Weather Stations






























Interactive Weather Map New forecast layout! Learn more

10-Day Weather Forecast

Advertisements
Track Severe Weather on mobile